createdAt,value
2023-02-05T00:00:02.365Z,3.27
2023-02-05T00:02:28.834Z,4.66
2023-02-05T00:04:55.237Z,3.93
2023-02-05T00:07:21.610Z,3.18
2023-02-05T00:09:47.952Z,2.42
2023-02-05T00:12:14.377Z,1.62
2023-02-05T00:14:40.752Z,1.73
2023-02-05T00:17:07.169Z,0.00
2023-02-05T00:19:33.737Z,0.53
2023-02-05T00:22:00.107Z,0.20
2023-02-05T00:24:26.455Z,0.45
2023-02-05T00:26:52.832Z,0.00
2023-02-05T00:29:19.198Z,0.00
2023-02-05T00:31:49.331Z,0.61
2023-02-05T00:34:16.354Z,1.11
2023-02-05T00:36:42.717Z,1.97
2023-02-05T00:39:11.276Z,3.52
2023-02-05T00:41:38.181Z,4.30
2023-02-05T00:44:04.994Z,5.80
2023-02-05T00:46:31.387Z,6.05
2023-02-05T00:48:58.015Z,5.88
2023-02-05T00:51:24.352Z,4.80
2023-02-05T00:53:50.849Z,2.71
2023-02-05T00:56:17.244Z,1.18
2023-02-05T00:58:48.892Z,0.71
2023-02-05T01:01:15.513Z,0.56
2023-02-05T01:03:42.257Z,1.24
2023-02-05T01:06:08.647Z,2.08
2023-02-05T01:08:35.008Z,4.15
2023-02-05T01:11:01.686Z,3.48
2023-02-05T01:13:28.058Z,2.66
2023-02-05T01:15:54.508Z,3.26
2023-02-05T01:18:21.180Z,1.96
2023-02-05T01:20:47.520Z,2.47
2023-02-05T01:23:13.917Z,1.46
2023-02-05T01:25:40.538Z,1.45
2023-02-05T01:28:07.086Z,1.88
2023-02-05T01:30:34.021Z,0.87
2023-02-05T01:33:00.575Z,0.27
2023-02-05T01:35:26.953Z,0.03
2023-02-05T01:37:53.332Z,0.00
2023-02-05T01:40:19.726Z,0.00
2023-02-05T01:42:46.171Z,0.00
2023-02-05T01:45:21.738Z,0.00
2023-02-05T01:48:01.554Z,0.30
2023-02-05T01:50:33.928Z,2.83
2023-02-05T01:53:05.979Z,3.50
2023-02-05T01:55:32.876Z,3.96
2023-02-05T01:57:59.439Z,5.20
2023-02-05T02:00:25.875Z,7.03
2023-02-05T02:02:52.322Z,7.83
2023-02-05T02:05:18.989Z,8.66
2023-02-05T02:07:45.650Z,13.19
2023-02-05T02:10:13.367Z,19.61
2023-02-05T02:12:41.119Z,22.30
2023-02-05T02:15:12.827Z,22.77
2023-02-05T02:17:40.296Z,24.47
2023-02-05T02:20:14.510Z,25.84
2023-02-05T02:22:56.235Z,29.80
2023-02-05T02:25:25.863Z,32.22
2023-02-05T02:28:02.687Z,32.89
2023-02-05T02:30:47.995Z,34.75
2023-02-05T02:33:17.335Z,36.72
2023-02-05T02:35:45.153Z,37.57
2023-02-05T02:38:41.214Z,38.99
2023-02-05T02:41:13.916Z,39.53
2023-02-05T02:43:43.332Z,39.48
2023-02-05T02:46:15.773Z,41.31
2023-02-05T02:48:42.189Z,42.87
2023-02-05T02:51:08.650Z,43.68
2023-02-05T02:53:37.451Z,46.24
2023-02-05T02:56:04.068Z,47.31
2023-02-05T02:58:33.789Z,46.10
2023-02-05T03:01:00.374Z,45.54
2023-02-05T03:03:26.768Z,45.32
2023-02-05T03:05:53.208Z,44.88
2023-02-05T03:08:25.243Z,44.70
2023-02-05T03:11:12.691Z,43.40
2023-02-05T03:13:39.378Z,42.82
2023-02-05T03:16:05.882Z,41.87
2023-02-05T03:18:32.400Z,41.30
2023-02-05T03:21:02.669Z,39.68
2023-02-05T03:23:29.022Z,40.91
2023-02-05T03:25:55.451Z,41.59
2023-02-05T03:28:21.813Z,40.85
2023-02-05T03:31:13.449Z,38.97
2023-02-05T03:34:12.143Z,37.92
2023-02-05T03:36:58.129Z,37.90
2023-02-05T03:39:37.518Z,38.25
2023-02-05T03:42:18.240Z,40.21
2023-02-05T03:44:44.567Z,40.49
2023-02-05T03:47:35.404Z,40.12
2023-02-05T03:50:50.010Z,38.74
2023-02-05T03:53:34.346Z,37.76
2023-02-05T03:56:06.377Z,35.70
2023-02-05T03:58:41.897Z,34.15
2023-02-05T04:01:08.873Z,33.89
2023-02-05T04:03:35.347Z,34.89
2023-02-05T04:06:01.723Z,34.68
2023-02-05T04:08:28.080Z,35.68
2023-02-05T04:10:54.417Z,35.79
2023-02-05T04:13:20.772Z,35.85
2023-02-05T04:15:49.204Z,36.03
2023-02-05T04:18:16.061Z,35.52
2023-02-05T04:20:42.632Z,36.21
2023-02-05T04:23:09.102Z,37.75
2023-02-05T04:25:38.794Z,37.75
2023-02-05T04:28:05.885Z,37.73
2023-02-05T04:30:33.167Z,37.08
2023-02-05T04:32:59.512Z,36.29
2023-02-05T04:35:25.918Z,35.17
2023-02-05T04:37:52.263Z,35.03
2023-02-05T04:40:18.758Z,34.77
2023-02-05T04:42:45.279Z,34.23
2023-02-05T04:45:11.773Z,34.71
2023-02-05T04:47:38.195Z,35.96
2023-02-05T04:50:05.036Z,36.68
2023-02-05T04:52:31.372Z,36.88
2023-02-05T04:54:57.753Z,37.34
2023-02-05T04:57:24.597Z,37.33
2023-02-05T04:59:51.004Z,36.94
2023-02-05T05:02:17.453Z,36.68
2023-02-05T05:04:44.119Z,35.66
2023-02-05T05:07:10.489Z,35.48
2023-02-05T05:09:37.133Z,35.98
2023-02-05T05:12:03.685Z,38.36
2023-02-05T05:14:30.074Z,40.21
2023-02-05T05:16:56.440Z,40.70
2023-02-05T05:19:22.850Z,42.31
2023-02-05T05:21:49.182Z,43.29
2023-02-05T05:24:15.519Z,44.96
2023-02-05T05:26:45.031Z,45.42
2023-02-05T05:29:12.137Z,44.71
2023-02-05T05:31:38.541Z,43.86
2023-02-05T05:34:05.128Z,44.78
2023-02-05T05:36:31.495Z,46.02
2023-02-05T05:39:17.864Z,48.44
2023-02-05T05:42:02.930Z,49.07
2023-02-05T05:44:29.567Z,48.82
2023-02-05T05:46:55.941Z,48.14
2023-02-05T05:49:22.314Z,46.33
2023-02-05T05:51:48.686Z,44.80
2023-02-05T05:54:15.052Z,42.54
2023-02-05T05:56:41.459Z,41.90
2023-02-05T05:59:07.859Z,41.92
2023-02-05T06:01:34.206Z,43.07
2023-02-05T06:04:02.925Z,43.10
2023-02-05T06:06:30.538Z,42.85
2023-02-05T06:08:56.920Z,42.73
2023-02-05T06:11:23.261Z,44.22
2023-02-05T06:13:49.640Z,44.81
2023-02-05T06:16:16.033Z,45.83
2023-02-05T06:18:42.444Z,45.85
2023-02-05T06:21:09.711Z,46.05
2023-02-05T06:23:36.105Z,44.97
2023-02-05T06:26:02.559Z,44.63
2023-02-05T06:28:28.980Z,43.67
2023-02-05T06:30:55.762Z,43.82
2023-02-05T06:33:22.147Z,43.34
2023-02-05T06:35:48.684Z,44.23
2023-02-05T06:38:15.030Z,42.79
2023-02-05T06:40:41.408Z,42.03
2023-02-05T06:43:08.158Z,41.55
2023-02-05T06:45:34.850Z,43.67
2023-02-05T06:48:01.320Z,44.52
2023-02-05T06:50:27.808Z,44.33
2023-02-05T06:52:54.167Z,45.21
2023-02-05T06:55:20.571Z,45.76
2023-02-05T06:57:46.981Z,45.96
2023-02-05T07:00:13.972Z,45.89
2023-02-05T07:02:40.422Z,47.54
2023-02-05T07:05:07.324Z,50.02
2023-02-05T07:07:33.690Z,51.60
2023-02-05T07:10:00.289Z,52.31
2023-02-05T07:12:26.746Z,52.22
2023-02-05T07:14:53.110Z,52.01
2023-02-05T07:17:20.808Z,51.90
2023-02-05T07:19:47.390Z,51.76
2023-02-05T07:22:14.620Z,50.68
2023-02-05T07:24:40.973Z,50.53
2023-02-05T07:27:07.532Z,49.84
2023-02-05T07:29:33.888Z,48.77
2023-02-05T07:32:00.278Z,48.31
2023-02-05T07:34:26.664Z,47.26
2023-02-05T07:36:53.038Z,46.41
2023-02-05T07:39:19.631Z,44.32
2023-02-05T07:41:46.224Z,43.28
2023-02-05T07:44:12.785Z,42.39
2023-02-05T07:46:39.239Z,38.20
2023-02-05T07:49:05.646Z,36.02
2023-02-05T07:51:32.777Z,35.15
2023-02-05T07:53:59.154Z,33.65
2023-02-05T07:56:25.839Z,32.17
2023-02-05T07:58:52.318Z,30.43
2023-02-05T08:01:18.770Z,29.58
2023-02-05T08:03:45.405Z,28.11
2023-02-05T08:06:13.910Z,24.06
2023-02-05T08:08:40.372Z,22.69
2023-02-05T08:11:06.869Z,21.46
2023-02-05T08:13:33.427Z,20.31
2023-02-05T08:15:59.943Z,19.78
2023-02-05T08:18:26.557Z,19.94
2023-02-05T08:20:53.585Z,19.67
2023-02-05T08:23:20.154Z,18.93
2023-02-05T08:25:46.708Z,19.08
2023-02-05T08:28:13.179Z,19.64
2023-02-05T08:30:39.581Z,19.27
2023-02-05T08:33:05.973Z,19.10
2023-02-05T08:35:32.808Z,17.86
2023-02-05T08:37:59.330Z,16.93
2023-02-05T08:40:25.792Z,16.61
2023-02-05T08:42:56.664Z,15.94
2023-02-05T08:45:26.990Z,16.21
2023-02-05T08:47:53.677Z,16.58
2023-02-05T08:50:20.311Z,16.43
2023-02-05T08:52:46.801Z,16.34
2023-02-05T08:55:13.327Z,16.17
2023-02-05T08:57:39.908Z,16.51
2023-02-05T09:00:06.618Z,15.88
2023-02-05T09:02:32.980Z,15.18
2023-02-05T09:05:08.540Z,15.19
2023-02-05T09:07:37.371Z,14.67
2023-02-05T09:10:03.800Z,14.41
2023-02-05T09:12:30.180Z,14.34
2023-02-05T09:14:56.672Z,13.61
2023-02-05T09:17:23.035Z,13.73
2023-02-05T09:19:49.381Z,13.34
2023-02-05T09:22:16.078Z,12.68
2023-02-05T09:24:42.426Z,13.09
2023-02-05T09:27:08.831Z,13.86
2023-02-05T09:29:35.432Z,14.35
2023-02-05T09:32:01.855Z,14.22
2023-02-05T09:34:28.253Z,14.04
2023-02-05T09:36:54.708Z,14.52
2023-02-05T09:39:52.261Z,13.14
2023-02-05T09:42:17.348Z,13.23
2023-02-05T09:45:03.617Z,12.18
2023-02-05T09:47:33.145Z,12.02
2023-02-05T09:50:15.416Z,11.25
2023-02-05T09:52:47.667Z,8.13
2023-02-05T09:55:26.900Z,8.04
2023-02-05T09:57:54.926Z,7.56
2023-02-05T10:00:21.538Z,7.47
2023-02-05T10:02:58.357Z,6.65
2023-02-05T10:05:25.184Z,1.38
2023-02-05T10:08:06.778Z,1.68
2023-02-05T10:10:53.669Z,0.92
2023-02-05T10:13:24.178Z,1.02
2023-02-05T10:16:00.000Z,0.60
2023-02-05T10:18:41.196Z,0.45
2023-02-05T10:21:17.243Z,0.57
2023-02-05T10:24:00.357Z,0.44
2023-02-05T10:26:32.253Z,0.25
2023-02-05T10:29:03.928Z,0.00
2023-02-05T10:31:44.122Z,0.60
2023-02-05T10:34:43.280Z,0.90
2023-02-05T10:37:16.157Z,0.31
2023-02-05T10:39:42.572Z,0.00
2023-02-05T10:42:27.135Z,0.00
2023-02-05T10:45:01.369Z,1.82
2023-02-05T10:47:55.332Z,1.36
2023-02-05T10:50:28.793Z,2.11
2023-02-05T10:52:55.372Z,4.25
2023-02-05T10:55:21.760Z,19.83
2023-02-05T10:57:48.432Z,31.06
2023-02-05T11:00:19.712Z,33.63
2023-02-05T11:02:49.024Z,34.52
2023-02-05T11:05:35.882Z,50.26
2023-02-05T11:08:02.308Z,59.69
2023-02-05T11:10:30.337Z,64.79
2023-02-05T11:12:59.332Z,64.53
2023-02-05T11:15:27.197Z,60.44
2023-02-05T11:18:21.473Z,56.14
2023-02-05T11:20:55.146Z,58.66
2023-02-05T11:23:23.152Z,61.59
2023-02-05T11:25:50.713Z,62.73
2023-02-05T11:28:30.290Z,65.78
2023-02-05T11:30:57.466Z,72.33
2023-02-05T11:33:33.131Z,72.00
2023-02-05T11:36:01.768Z,77.68
2023-02-05T11:38:42.507Z,78.76
2023-02-05T11:41:09.033Z,90.63
2023-02-05T11:43:36.258Z,89.12
2023-02-05T11:46:05.132Z,91.07
2023-02-05T11:48:32.879Z,90.04
2023-02-05T11:51:01.372Z,89.71
2023-02-05T11:53:27.789Z,92.19
2023-02-05T11:55:56.562Z,89.69
2023-02-05T11:58:34.867Z,85.29
2023-02-05T12:01:08.312Z,81.91
2023-02-05T12:03:35.038Z,76.40
2023-02-05T12:06:20.838Z,64.94
2023-02-05T12:08:48.236Z,57.27
2023-02-05T12:11:23.294Z,52.28
2023-02-05T12:14:12.993Z,52.28
2023-02-05T12:16:48.324Z,59.15
2023-02-05T12:19:17.699Z,65.54
2023-02-05T12:21:51.553Z,68.23
2023-02-05T12:24:45.053Z,69.56
2023-02-05T12:27:17.037Z,60.69
2023-02-05T12:30:13.771Z,58.12
2023-02-05T12:32:53.376Z,54.78
2023-02-05T12:35:33.342Z,51.90
2023-02-05T12:38:32.108Z,46.16
2023-02-05T12:41:08.518Z,44.04
2023-02-05T12:43:43.719Z,40.09
2023-02-05T12:46:41.417Z,33.78
2023-02-05T12:49:17.499Z,32.79
2023-02-05T12:51:59.901Z,36.10
2023-02-05T12:54:40.144Z,38.19
2023-02-05T12:57:19.418Z,34.31
2023-02-05T12:59:51.190Z,39.79
2023-02-05T13:02:47.853Z,44.10
2023-02-05T13:05:22.043Z,45.12
2023-02-05T13:07:52.852Z,51.66
2023-02-05T13:10:28.382Z,49.71
2023-02-05T13:12:59.175Z,50.55
2023-02-05T13:15:28.589Z,49.92
2023-02-05T13:17:59.394Z,52.01
2023-02-05T13:20:49.344Z,54.94
2023-02-05T13:23:34.441Z,59.54
2023-02-05T13:26:20.276Z,60.58
2023-02-05T13:29:05.747Z,62.34
2023-02-05T13:31:38.534Z,64.78
2023-02-05T13:34:06.422Z,66.17
2023-02-05T13:36:38.045Z,69.11
2023-02-05T13:39:07.655Z,77.04
2023-02-05T13:42:01.628Z,85.40
2023-02-05T13:44:35.554Z,90.23
2023-02-05T13:47:32.881Z,94.33
2023-02-05T13:50:25.608Z,92.69
2023-02-05T13:53:10.065Z,92.43
2023-02-05T13:55:39.537Z,93.74
2023-02-05T13:58:22.003Z,91.57
2023-02-05T14:00:52.843Z,95.19
2023-02-05T14:03:38.057Z,92.12
2023-02-05T14:06:16.848Z,92.20
2023-02-05T14:08:43.209Z,99.06
2023-02-05T14:11:09.550Z,100.00
2023-02-05T14:13:36.257Z,100.00
2023-02-05T14:16:38.024Z,100.00
2023-02-05T14:19:10.598Z,100.00
2023-02-05T14:21:45.893Z,100.00
2023-02-05T14:24:25.694Z,100.00
2023-02-05T14:26:56.555Z,100.00
2023-02-05T14:29:42.462Z,100.00
2023-02-05T14:32:12.506Z,100.00
2023-02-05T14:34:38.819Z,100.00
2023-02-05T14:37:05.408Z,100.00
2023-02-05T14:39:33.623Z,100.00
2023-02-05T14:42:01.929Z,100.00
2023-02-05T14:44:32.197Z,100.00
2023-02-05T14:47:08.543Z,98.94
2023-02-05T14:49:34.942Z,93.81
2023-02-05T14:52:03.012Z,92.34
2023-02-05T14:54:36.082Z,85.86
2023-02-05T14:57:11.765Z,84.71
2023-02-05T15:00:01.753Z,81.50
2023-02-05T15:02:56.163Z,76.45
2023-02-05T15:05:36.878Z,74.91
2023-02-05T15:08:34.553Z,75.63
2023-02-05T15:11:22.010Z,74.76
2023-02-05T15:14:19.780Z,72.25
2023-02-05T15:17:05.302Z,71.82
2023-02-05T15:19:40.584Z,68.38
2023-02-05T15:22:22.922Z,73.17
2023-02-05T15:24:49.317Z,74.10
2023-02-05T15:27:18.664Z,72.78
2023-02-05T15:29:47.535Z,73.29
2023-02-05T15:32:24.583Z,76.04
2023-02-05T15:34:51.064Z,72.54
2023-02-05T15:37:33.910Z,71.62
2023-02-05T15:40:08.761Z,70.59
2023-02-05T15:42:37.155Z,69.07
2023-02-05T15:45:22.658Z,67.41
2023-02-05T15:48:24.492Z,67.48
2023-02-05T15:51:19.346Z,65.31
2023-02-05T15:53:49.320Z,60.33
2023-02-05T15:56:27.087Z,56.32
2023-02-05T15:58:55.236Z,54.77
2023-02-05T16:01:23.608Z,53.89
2023-02-05T16:03:49.994Z,55.16
2023-02-05T16:06:20.564Z,56.37
2023-02-05T16:08:48.171Z,58.36
2023-02-05T16:11:34.405Z,59.02
2023-02-05T16:14:04.799Z,59.12
2023-02-05T16:16:31.537Z,56.42
2023-02-05T16:18:59.149Z,47.01
2023-02-05T16:21:32.372Z,43.24
2023-02-05T16:24:29.789Z,39.27
2023-02-05T16:26:59.980Z,37.20
2023-02-05T16:29:48.541Z,29.46
2023-02-05T16:32:19.180Z,25.99
2023-02-05T16:34:45.535Z,24.24
2023-02-05T16:37:14.487Z,17.83
2023-02-05T16:39:53.347Z,15.88
2023-02-05T16:42:25.907Z,4.15
2023-02-05T16:45:10.599Z,0.00
2023-02-05T16:47:37.135Z,0.00
2023-02-05T16:50:41.351Z,0.00
2023-02-05T16:53:16.107Z,0.00
2023-02-05T16:55:43.128Z,0.00
2023-02-05T16:58:14.387Z,0.00
2023-02-05T17:00:41.048Z,0.00
2023-02-05T17:03:14.071Z,0.00
2023-02-05T17:05:40.458Z,0.00
2023-02-05T17:08:07.898Z,0.00
2023-02-05T17:10:53.158Z,0.00
2023-02-05T17:13:26.610Z,0.00
2023-02-05T17:15:53.342Z,0.00
2023-02-05T17:18:20.793Z,0.00
2023-02-05T17:20:47.264Z,0.00
2023-02-05T17:23:14.767Z,0.00
2023-02-05T17:25:52.439Z,0.00
2023-02-05T17:28:21.022Z,0.00
2023-02-05T17:30:48.343Z,0.00
2023-02-05T17:33:20.095Z,0.00
2023-02-05T17:35:46.545Z,0.00
2023-02-05T17:38:12.983Z,0.00
2023-02-05T17:40:39.347Z,0.00
2023-02-05T17:43:05.738Z,0.00
2023-02-05T17:45:34.526Z,0.00
2023-02-05T17:48:00.960Z,0.00
2023-02-05T17:50:27.440Z,0.00
2023-02-05T17:52:54.987Z,0.00
2023-02-05T17:55:21.771Z,0.00
2023-02-05T17:57:48.222Z,0.00
2023-02-05T18:00:27.934Z,0.00
2023-02-05T18:02:54.436Z,0.00
2023-02-05T18:05:20.877Z,0.00
2023-02-05T18:07:51.558Z,0.00
2023-02-05T18:10:23.760Z,0.00
2023-02-05T18:12:50.449Z,0.00
2023-02-05T18:15:16.990Z,0.00
2023-02-05T18:17:43.436Z,0.00
2023-02-05T18:20:10.183Z,0.00
2023-02-05T18:22:36.847Z,0.00
2023-02-05T18:25:03.884Z,0.00
2023-02-05T18:27:30.811Z,0.00
2023-02-05T18:29:57.236Z,0.00
2023-02-05T18:32:24.117Z,0.00
2023-02-05T18:34:50.973Z,0.00
2023-02-05T18:37:17.912Z,0.00
2023-02-05T18:39:45.059Z,0.00
2023-02-05T18:42:12.729Z,0.00
2023-02-05T18:44:39.271Z,0.00
2023-02-05T18:47:05.987Z,0.00
2023-02-05T18:49:33.302Z,0.00
2023-02-05T18:51:59.677Z,0.00
2023-02-05T18:54:26.062Z,0.00
2023-02-05T18:56:54.534Z,0.00
2023-02-05T18:59:24.159Z,0.00
2023-02-05T19:01:50.673Z,0.00
2023-02-05T19:04:18.587Z,0.00
2023-02-05T19:06:50.580Z,0.00
2023-02-05T19:09:17.069Z,0.00
2023-02-05T19:11:44.128Z,0.00
2023-02-05T19:14:11.849Z,0.00
2023-02-05T19:16:38.575Z,0.00
2023-02-05T19:19:05.059Z,0.00
2023-02-05T19:21:31.988Z,0.00
2023-02-05T19:24:05.346Z,0.00
2023-02-05T19:26:32.203Z,0.00
2023-02-05T19:28:59.904Z,0.00
2023-02-05T19:31:28.178Z,0.00
2023-02-05T19:33:55.905Z,0.00
2023-02-05T19:36:23.027Z,0.00
2023-02-05T19:38:49.434Z,0.00
2023-02-05T19:41:17.391Z,0.00
2023-02-05T19:43:50.198Z,0.00
2023-02-05T19:46:20.401Z,0.00
2023-02-05T19:48:47.040Z,0.00
2023-02-05T19:51:13.775Z,0.00
2023-02-05T19:53:41.442Z,0.00
2023-02-05T19:56:12.468Z,0.00
2023-02-05T19:58:40.252Z,0.00
2023-02-05T20:01:18.340Z,0.00
2023-02-05T20:03:44.967Z,0.00
2023-02-05T20:06:12.842Z,0.00
2023-02-05T20:08:39.733Z,0.00
2023-02-05T20:11:06.175Z,0.00
2023-02-05T20:13:33.586Z,0.00
2023-02-05T20:16:22.060Z,0.00
2023-02-05T20:18:56.121Z,0.00
2023-02-05T20:21:22.763Z,0.00
2023-02-05T20:23:49.214Z,0.00
2023-02-05T20:26:18.821Z,0.00
2023-02-05T20:29:04.909Z,0.00
2023-02-05T20:31:34.406Z,0.00
2023-02-05T20:34:05.990Z,0.00
2023-02-05T20:36:32.833Z,0.00
2023-02-05T20:39:00.102Z,0.00
2023-02-05T20:41:26.766Z,0.00
2023-02-05T20:43:53.182Z,0.00
2023-02-05T20:46:19.686Z,0.00
2023-02-05T20:48:46.364Z,0.00
2023-02-05T20:51:14.576Z,0.00
2023-02-05T20:53:40.963Z,0.00
2023-02-05T20:56:09.802Z,0.00
2023-02-05T20:58:36.232Z,0.00
2023-02-05T21:01:13.052Z,0.00
2023-02-05T21:03:42.042Z,0.00
2023-02-05T21:06:09.088Z,0.00
2023-02-05T21:08:38.377Z,0.00
2023-02-05T21:11:05.072Z,0.00
2023-02-05T21:13:31.470Z,0.00
2023-02-05T21:15:58.856Z,0.00
2023-02-05T21:18:25.989Z,0.00
2023-02-05T21:20:52.426Z,0.00
2023-02-05T21:23:19.423Z,0.00
2023-02-05T21:25:45.836Z,0.00
2023-02-05T21:28:12.425Z,0.00
2023-02-05T21:30:39.343Z,0.00
2023-02-05T21:33:05.793Z,0.00
2023-02-05T21:35:32.180Z,0.00
2023-02-05T21:37:58.689Z,0.00
2023-02-05T21:40:25.059Z,0.00
2023-02-05T21:42:51.462Z,0.00
2023-02-05T21:45:18.029Z,0.00
2023-02-05T21:47:44.380Z,0.00
2023-02-05T21:50:10.720Z,0.00
2023-02-05T21:52:37.437Z,0.00
2023-02-05T21:55:03.863Z,0.00
2023-02-05T21:57:30.217Z,0.00
2023-02-05T21:59:56.615Z,0.00
2023-02-05T22:02:23.038Z,0.00
2023-02-05T22:04:49.542Z,0.00
2023-02-05T22:07:16.142Z,0.00
2023-02-05T22:09:42.618Z,0.00
2023-02-05T22:12:09.536Z,0.00
2023-02-05T22:14:36.068Z,0.00
2023-02-05T22:17:02.489Z,0.00
2023-02-05T22:19:28.993Z,0.00
2023-02-05T22:21:55.380Z,0.00
2023-02-05T22:24:22.834Z,0.00
2023-02-05T22:26:49.450Z,0.00
2023-02-05T22:29:17.759Z,0.00
2023-02-05T22:31:44.776Z,0.00
2023-02-05T22:34:11.325Z,0.00
2023-02-05T22:36:37.959Z,0.00
2023-02-05T22:39:05.230Z,0.00
2023-02-05T22:41:36.423Z,0.00
2023-02-05T22:44:03.901Z,0.00
2023-02-05T22:46:31.878Z,0.00
2023-02-05T22:48:59.272Z,0.00
2023-02-05T22:51:36.862Z,0.00
2023-02-05T22:54:03.516Z,0.00
2023-02-05T22:56:29.907Z,0.00
2023-02-05T22:58:56.617Z,0.00
2023-02-05T23:01:26.543Z,0.00
2023-02-05T23:03:53.074Z,1.06
2023-02-05T23:06:27.305Z,3.98
2023-02-05T23:09:17.293Z,6.70
2023-02-05T23:11:43.982Z,11.32
2023-02-05T23:14:10.904Z,13.81
2023-02-05T23:16:39.661Z,17.56
2023-02-05T23:19:12.440Z,20.12
2023-02-05T23:21:39.159Z,23.84
2023-02-05T23:24:05.811Z,27.15
2023-02-05T23:26:34.051Z,29.53
2023-02-05T23:29:00.577Z,32.73
2023-02-05T23:31:27.154Z,35.22
2023-02-05T23:33:53.959Z,37.82
2023-02-05T23:36:20.366Z,39.90
2023-02-05T23:38:46.861Z,42.65
2023-02-05T23:41:13.250Z,44.27
2023-02-05T23:43:39.653Z,47.01
2023-02-05T23:46:06.729Z,49.33
2023-02-05T23:48:33.631Z,51.80
2023-02-05T23:51:00.068Z,54.59
2023-02-05T23:53:26.523Z,57.19
2023-02-05T23:55:53.246Z,59.27
2023-02-05T23:58:20.161Z,61.40
